Time;durP1;ratioP1;P1;durP2;ratioP2;P2;SDS_P1;SDS_P2;PMS_P1;PMS_P2;Temp;Humidity;BMP_temperature;BMP_pressure;BME280_temperature;BME280_humidity;BME280_pressure;Samples;Min_cycle;Max_cycle;Signal;HPM_P1;HPM_P2
2023/05/20 00:03:11;;;;;;;;;;;;;;;18.51;47.35;95648.78;10243642;28;1828;-68
2023/05/20 00:08:11;;;;;;;;;;;;;;;18.51;47.36;95654.03;10239502;28;2150;-68
2023/05/20 00:13:11;;;;;;;;;;;;;;;18.51;47.28;95646.16;10240560;28;1879;-68
2023/05/20 00:18:12;;;;;;;;;;;;;;;18.52;47.36;95652.22;10239091;28;1824;-68
2023/05/20 00:23:12;;;;;;;;;;;;;;;18.52;47.05;95649.59;10243165;28;1784;-68
2023/05/20 00:28:12;;;;;;;;;;;;;;;18.52;47.28;95652.22;10236081;28;2054;-68
2023/05/20 00:33:13;;;;;;;;;;;;;;;18.50;47.25;95646.44;10242021;28;1974;-63
2023/05/20 00:38:13;;;;;;;;;;;;;;;18.52;47.12;95644.34;10238731;28;2278;-68
2023/05/20 00:43:13;;;;;;;;;;;;;;;18.51;47.14;95651.41;10244465;28;4549;-67
2023/05/20 00:48:13;;;;;;;;;;;;;;;18.50;47.08;95646.44;10247131;28;1911;-68
2023/05/20 00:53:15;;;;;;;;;;;;;;;18.49;47.13;95643.03;10246217;28;2000;-67
2023/05/20 00:58:16;;;;;;;;;;;;;;;18.50;47.13;95641.19;10244626;28;1945;-67
2023/05/20 01:03:16;;;;;;;;;;;;;;;18.49;47.19;95644.84;10247635;28;2308;-67
2023/05/20 01:08:17;;;;;;;;;;;;;;;18.49;47.07;95629.91;10248967;28;2170;-67
2023/05/20 01:13:19;;;;;;;;;;;;;;;18.49;47.09;95634.34;10247404;28;1908;-67
2023/05/20 01:18:19;;;;;;;;;;;;;;;18.49;47.16;95631.72;10248460;28;2313;-67
2023/05/20 01:23:20;;;;;;;;;;;;;;;18.48;47.08;95625.72;10244472;28;1925;-67
2023/05/20 01:28:20;;;;;;;;;;;;;;;18.49;47.25;95626.47;10248921;28;1929;-67
2023/05/20 01:33:22;;;;;;;;;;;;;;;18.48;47.03;95617.03;10248547;28;1853;-66
2023/05/20 01:38:22;;;;;;;;;;;;;;;18.48;47.11;95617.84;10236417;28;1981;-67
2023/05/20 01:43:23;;;;;;;;;;;;;;;18.48;46.98;95617.03;10249469;28;4414;-67
2023/05/20 01:48:23;;;;;;;;;;;;;;;18.48;47.19;95609.97;10250384;28;2081;-68
2023/05/20 01:53:24;;;;;;;;;;;;;;;18.47;47.07;95613.63;10240428;28;1917;-67
2023/05/20 01:58:24;;;;;;;;;;;;;;;18.47;47.11;95610.22;10243199;28;2075;-67
2023/05/20 02:03:24;;;;;;;;;;;;;;;18.47;47.13;95611.00;10248976;28;1987;-68
2023/05/20 02:08:25;;;;;;;;;;;;;;;18.47;47.06;95602.34;10244523;28;1922;-67
2023/05/20 02:13:25;;;;;;;;;;;;;;;18.48;47.07;95601.28;10246583;28;1866;-67
2023/05/20 02:18:25;;;;;;;;;;;;;;;18.48;47.05;95596.03;10242619;28;2167;-67
2023/05/20 02:23:25;;;;;;;;;;;;;;;18.46;46.99;95600.78;10247430;28;1940;-67
2023/05/20 02:28:26;;;;;;;;;;;;;;;18.47;47.02;95610.22;10243507;28;1941;-67
2023/05/20 02:33:27;;;;;;;;;;;;;;;18.47;47.15;95611.00;10242140;28;1996;-67
2023/05/20 02:38:28;;;;;;;;;;;;;;;18.47;46.97;95610.22;10237922;28;1877;-67
2023/05/20 02:43:28;;;;;;;;;;;;;;;18.47;47.04;95612.84;10244526;28;4429;-67
2023/05/20 02:48:28;;;;;;;;;;;;;;;18.47;47.02;95615.47;10242063;28;1907;-67
2023/05/20 02:53:28;;;;;;;;;;;;;;;18.46;46.86;95622.56;10239982;28;1945;-67
2023/05/20 02:58:29;;;;;;;;;;;;;;;18.45;46.94;95613.09;10240128;28;2052;-67
2023/05/20 03:03:29;;;;;;;;;;;;;;;18.45;47.02;95601.81;10240753;28;1913;-68
2023/05/20 03:08:30;;;;;;;;;;;;;;;18.46;46.97;95603.41;10241914;28;1984;-67
2023/05/20 03:13:30;;;;;;;;;;;;;;;18.46;46.91;95609.44;10241108;28;1969;-67
2023/05/20 03:18:30;;;;;;;;;;;;;;;18.45;46.98;95613.09;10240643;28;1977;-67
2023/05/20 03:23:30;;;;;;;;;;;;;;;18.45;46.97;95597.34;10243108;28;1886;-67
2023/05/20 03:28:31;;;;;;;;;;;;;;;18.46;46.91;95606.03;10243130;28;1941;-67
2023/05/20 03:33:32;;;;;;;;;;;;;;;18.46;46.85;95603.41;10240768;28;1973;-67
2023/05/20 03:38:32;;;;;;;;;;;;;;;18.44;46.77;95602.88;10238029;28;2154;-67
2023/05/20 03:43:33;;;;;;;;;;;;;;;18.45;46.84;95607.06;10240678;28;4457;-67
2023/05/20 03:48:33;;;;;;;;;;;;;;;18.45;46.75;95609.69;10243345;28;1976;-67
2023/05/20 03:53:33;;;;;;;;;;;;;;;18.45;46.89;95614.94;10239434;28;2006;-67
2023/05/20 03:58:34;;;;;;;;;;;;;;;18.44;46.89;95610.75;10239174;28;1990;-67
2023/05/20 04:03:34;;;;;;;;;;;;;;;18.45;46.79;95615.72;10242811;28;1770;-67
2023/05/20 04:08:37;;;;;;;;;;;;;;;18.46;46.95;95621.78;10239720;28;2072;-67
2023/05/20 04:13:37;;;;;;;;;;;;;;;18.45;46.81;95607.06;10241868;28;1925;-67
2023/05/20 04:18:38;;;;;;;;;;;;;;;18.43;46.81;95604.72;10242061;28;1950;-67
2023/05/20 04:23:38;;;;;;;;;;;;;;;18.43;46.75;95604.72;10247115;28;1903;-67
2023/05/20 04:28:40;;;;;;;;;;;;;;;18.44;46.82;95600.25;10248022;28;2060;-67
2023/05/20 04:33:41;;;;;;;;;;;;;;;18.44;46.78;95600.25;10249085;28;2189;-67
2023/05/20 04:38:43;;;;;;;;;;;;;;;18.43;46.77;95602.09;10251792;28;2056;-67
2023/05/20 04:43:44;;;;;;;;;;;;;;;18.44;46.85;95595.00;10250155;28;4572;-69
2023/05/20 04:48:46;;;;;;;;;;;;;;;18.44;46.86;95600.25;10252084;28;2227;-68
2023/05/20 04:53:47;;;;;;;;;;;;;;;18.44;46.74;95592.38;10231519;28;2020;-67
2023/05/20 04:58:47;;;;;;;;;;;;;;;18.45;46.75;95604.44;10246978;28;1916;-67
2023/05/20 05:03:47;;;;;;;;;;;;;;;18.45;46.84;95607.06;10247334;28;1957;-67
2023/05/20 05:08:48;;;;;;;;;;;;;;;18.44;46.73;95603.63;10246608;28;1969;-67
2023/05/20 05:13:48;;;;;;;;;;;;;;;18.43;46.90;95607.31;10243688;28;2018;-67
2023/05/20 05:18:48;;;;;;;;;;;;;;;18.44;46.85;95598.38;10243966;28;1986;-68
2023/05/20 05:23:49;;;;;;;;;;;;;;;18.44;46.73;95587.88;10243605;28;2007;-67
2023/05/20 05:28:49;;;;;;;;;;;;;;;18.43;46.70;95583.72;10243558;28;1850;-67
2023/05/20 05:33:49;;;;;;;;;;;;;;;18.44;46.90;95582.63;10245583;28;1897;-68
2023/05/20 05:38:49;;;;;;;;;;;;;;;18.43;46.73;95582.88;10246662;28;1980;-67
2023/05/20 05:43:50;;;;;;;;;;;;;;;18.44;46.92;95592.38;10244513;28;4385;-68
2023/05/20 05:48:50;;;;;;;;;;;;;;;18.44;46.71;95595.00;10245876;28;1862;-67
2023/05/20 05:53:51;;;;;;;;;;;;;;;18.43;46.67;95596.84;10243391;28;1873;-68
2023/05/20 05:58:51;;;;;;;;;;;;;;;18.43;46.82;95593.38;10243480;28;1959;-67
2023/05/20 06:03:51;;;;;;;;;;;;;;;18.43;46.71;95593.38;10242723;28;1927;-68
2023/05/20 06:08:51;;;;;;;;;;;;;;;18.44;46.75;95598.38;10244731;28;1758;-67
2023/05/20 06:13:52;;;;;;;;;;;;;;;18.44;46.76;95595.75;10244919;28;2067;-67
2023/05/20 06:18:55;;;;;;;;;;;;;;;18.43;46.68;95594.22;10243031;28;1910;-67
2023/05/20 06:23:56;;;;;;;;;;;;;;;18.44;46.84;95595.75;10245361;28;1997;-67
2023/05/20 06:28:56;;;;;;;;;;;;;;;18.44;46.71;95595.00;10241758;28;1945;-67
2023/05/20 06:33:56;;;;;;;;;;;;;;;18.44;46.74;95590.50;10244178;28;1869;-68
2023/05/20 06:38:56;;;;;;;;;;;;;;;18.44;46.69;95589.75;10245750;28;2072;-68
2023/05/20 06:43:57;;;;;;;;;;;;;;;18.43;46.67;95588.97;10242562;28;2140;-67
2023/05/20 06:48:57;;;;;;;;;;;;;;;18.44;46.68;95584.50;10244756;28;1874;-68
2023/05/20 06:53:57;;;;;;;;;;;;;;;18.43;46.69;95591.59;10242509;28;2015;-68
2023/05/20 06:58:58;;;;;;;;;;;;;;;18.43;46.71;95578.47;10241599;28;1910;-67
2023/05/20 07:03:58;;;;;;;;;;;;;;;18.43;46.81;95572.38;10238547;28;1998;-67
2023/05/20 07:08:59;;;;;;;;;;;;;;;18.45;46.77;95583.44;10240937;28;1920;-67
2023/05/20 07:14:00;;;;;;;;;;;;;;;18.44;46.85;95577.41;10237356;28;1953;-68
2023/05/20 07:19:00;;;;;;;;;;;;;;;18.45;46.84;95572.94;10244336;28;2006;-68
2023/05/20 07:24:00;;;;;;;;;;;;;;;18.45;46.81;95571.13;10241708;28;1970;-67
2023/05/20 07:29:01;;;;;;;;;;;;;;;18.46;46.87;95569.28;10239155;28;2217;-68
2023/05/20 07:34:01;;;;;;;;;;;;;;;18.45;46.79;95565.88;10241709;28;2034;-68
2023/05/20 07:39:02;;;;;;;;;;;;;;;18.46;46.76;95566.66;10239422;28;2010;-67
2023/05/20 07:44:03;;;;;;;;;;;;;;;18.46;46.80;95561.41;10243814;28;4444;-67
2023/05/20 07:49:03;;;;;;;;;;;;;;;18.46;46.82;95564.81;10239872;28;1925;-68
2023/05/20 07:54:04;;;;;;;;;;;;;;;18.47;46.85;95562.97;10251490;28;1917;-68
2023/05/20 07:59:04;;;;;;;;;;;;;;;18.46;46.84;95564.81;10252987;28;1960;-68
2023/05/20 08:04:04;;;;;;;;;;;;;;;18.47;46.83;95566.38;10254218;28;1914;-67
2023/05/20 08:09:05;;;;;;;;;;;;;;;18.48;46.88;95559.31;10253393;28;1941;-67
2023/05/20 08:14:05;;;;;;;;;;;;;;;18.48;46.95;95559.31;10248719;28;1995;-67
2023/05/20 08:19:06;;;;;;;;;;;;;;;18.48;46.96;95544.34;10254031;28;1844;-67
2023/05/20 08:24:06;;;;;;;;;;;;;;;18.49;47.07;95532.78;10250303;28;1939;-67
2023/05/20 08:29:07;;;;;;;;;;;;;;;18.50;47.03;95533.56;10249630;28;2103;-67
2023/05/20 08:34:07;;;;;;;;;;;;;;;18.50;46.85;95536.19;10252080;28;2108;-67
2023/05/20 08:39:08;;;;;;;;;;;;;;;18.52;46.87;95534.09;10252668;28;1929;-67
2023/05/20 08:44:10;;;;;;;;;;;;;;;18.51;46.94;95528.06;10249211;28;4441;-67
2023/05/20 08:49:10;;;;;;;;;;;;;;;18.52;47.14;95520.97;10250871;28;1949;-67
2023/05/20 08:54:10;;;;;;;;;;;;;;;18.52;47.07;95526.22;10252004;28;1969;-67
2023/05/20 08:59:11;;;;;;;;;;;;;;;18.53;46.97;95525.16;10248624;28;1984;-67
2023/05/20 09:04:11;;;;;;;;;;;;;;;18.53;47.11;95531.19;10251400;28;1992;-67
2023/05/20 09:09:11;;;;;;;;;;;;;;;18.53;47.07;95519.91;10245480;28;1969;-68
2023/05/20 09:14:12;;;;;;;;;;;;;;;18.54;47.00;95524.13;10243864;28;1893;-68
2023/05/20 09:19:12;;;;;;;;;;;;;;;18.56;47.10;95527.25;10242813;28;1959;-68
2023/05/20 09:24:12;;;;;;;;;;;;;;;18.56;47.10;95530.69;10242899;28;2000;-66
2023/05/20 09:29:13;;;;;;;;;;;;;;;18.56;47.17;95519.38;10242006;28;2072;-66
2023/05/20 09:34:13;;;;;;;;;;;;;;;18.57;47.16;95515.69;10246824;28;1988;-66
2023/05/20 09:39:13;;;;;;;;;;;;;;;18.58;47.20;95522.53;10246653;28;1737;-66
2023/05/20 09:44:15;;;;;;;;;;;;;;;18.57;47.21;95521.75;10243833;28;4508;-66
2023/05/20 09:49:15;;;;;;;;;;;;;;;18.58;47.23;95518.06;10244446;28;1821;-69
2023/05/20 09:54:18;;;;;;;;;;;;;;;18.59;47.17;95516.22;10246892;28;1816;-68
2023/05/20 09:59:19;;;;;;;;;;;;;;;18.60;47.37;95497.59;10246726;28;1800;-66
2023/05/20 10:04:19;;;;;;;;;;;;;;;18.60;47.31;95500.22;10245853;28;2013;-68
2023/05/20 10:09:38;;;;;;;;;;;;;;;18.61;47.32;95498.38;10247345;28;1761;-68
2023/05/20 10:14:57;;;;;;;;;;;;;;;18.61;47.33;95498.38;10242682;28;1955;-68
2023/05/20 10:19:58;;;;;;;;;;;;;;;18.62;47.50;95494.69;10240447;28;1843;-68
2023/05/20 10:24:59;;;;;;;;;;;;;;;18.61;47.41;95483.41;10245181;28;2080;-68
2023/05/20 10:29:59;;;;;;;;;;;;;;;18.61;47.51;95485.25;10243020;28;1758;-68
2023/05/20 10:35:00;;;;;;;;;;;;;;;18.62;47.56;95484.19;10245271;28;1770;-68
2023/05/20 10:40:13;;;;;;;;;;;;;;;18.63;47.32;95476.03;10246300;28;4358;-68
2023/05/20 10:45:26;;;;;;;;;;;;;;;18.64;47.34;95461.88;10241654;28;1906;-68
2023/05/20 10:50:27;;;;;;;;;;;;;;;18.65;47.50;95452.16;10243566;28;1777;-68
2023/05/20 10:55:33;;;;;;;;;;;;;;;18.66;47.58;95457.16;10243687;28;1808;-68
2023/05/20 11:00:37;;;;;;;;;;;;;;;18.67;47.40;95455.28;10244765;28;1907;-68
2023/05/20 11:05:40;;;;;;;;;;;;;;;18.66;47.35;95446.66;10242684;28;1914;-68
2023/05/20 11:10:41;;;;;;;;;;;;;;;18.67;47.59;95440.31;10241924;28;1989;-68
2023/05/20 11:15:41;;;;;;;;;;;;;;;18.70;47.46;95436.38;10242612;28;1848;-68
2023/05/20 11:20:42;;;;;;;;;;;;;;;18.71;47.50;95439.81;10242337;28;1806;-68
2023/05/20 11:25:42;;;;;;;;;;;;;;;18.71;47.59;95440.59;10238010;28;2067;-68
2023/05/20 11:30:43;;;;;;;;;;;;;;;18.71;47.66;95437.97;10243605;28;1886;-67
2023/05/20 11:35:44;;;;;;;;;;;;;;;18.71;47.69;95432.72;10243193;28;1962;-66
2023/05/20 11:40:45;;;;;;;;;;;;;;;18.72;47.81;95423.78;10241099;28;4422;-67
2023/05/20 11:45:57;;;;;;;;;;;;;;;18.74;47.69;95416.41;10237359;28;1918;-68
2023/05/20 11:50:58;;;;;;;;;;;;;;;18.74;47.59;95416.41;10240752;28;1864;-68
2023/05/20 11:55:58;;;;;;;;;;;;;;;18.75;47.76;95411.97;10238688;28;1808;-68
2023/05/20 12:00:59;;;;;;;;;;;;;;;18.77;47.70;95410.63;10235984;28;1899;-68
2023/05/20 12:06:00;;;;;;;;;;;;;;;18.77;47.92;95400.13;10239253;28;1989;-67
2023/05/20 12:11:00;;;;;;;;;;;;;;;18.78;48.01;95398.28;10242479;28;1687;-68
2023/05/20 12:16:00;;;;;;;;;;;;;;;18.78;47.95;95401.69;10237439;28;2048;-68
2023/05/20 12:21:01;;;;;;;;;;;;;;;18.80;48.15;95398.78;10238533;28;2036;-68
2023/05/20 12:26:01;;;;;;;;;;;;;;;18.79;47.98;95384.91;10239643;28;1918;-68
2023/05/20 12:31:01;;;;;;;;;;;;;;;18.80;47.99;95389.06;10239947;28;1828;-68
2023/05/20 12:36:01;;;;;;;;;;;;;;;18.81;48.04;95382.78;10244267;28;1856;-68
2023/05/20 12:41:02;;;;;;;;;;;;;;;18.82;48.15;95381.72;10247471;28;4379;-68
2023/05/20 12:46:02;;;;;;;;;;;;;;;18.83;47.99;95383.28;10247537;28;1981;-66
2023/05/20 12:51:02;;;;;;;;;;;;;;;18.85;48.13;95385.66;10249480;28;1861;-67
2023/05/20 12:56:03;;;;;;;;;;;;;;;18.85;48.05;95383.81;10249450;28;1804;-66
2023/05/20 13:01:03;;;;;;;;;;;;;;;18.85;48.22;95394.31;10243757;28;1844;-66
2023/05/20 13:06:03;;;;;;;;;;;;;;;18.84;48.33;95371.72;10243629;28;2031;-68
2023/05/20 13:11:04;;;;;;;;;;;;;;;18.86;48.19;95387.19;10245616;28;2023;-66
2023/05/20 13:16:04;;;;;;;;;;;;;;;18.87;48.38;95375.66;10243089;28;2017;-69
2023/05/20 13:21:04;;;;;;;;;;;;;;;18.87;48.09;95384.31;10245682;28;1856;-68
2023/05/20 13:26:04;;;;;;;;;;;;;;;18.88;48.39;95375.38;10243497;28;1918;-68
2023/05/20 13:31:08;;;;;;;;;;;;;;;18.89;48.54;95373.53;10243962;28;1887;-68
2023/05/20 13:36:09;;;;;;;;;;;;;;;18.90;48.47;95359.38;10242228;28;1886;-67
2023/05/20 13:41:09;;;;;;;;;;;;;;;18.89;48.45;95361.19;10241265;28;4402;-68
2023/05/20 13:46:09;;;;;;;;;;;;;;;18.90;48.50;95352.25;10245649;28;1978;-68
2023/05/20 13:51:10;;;;;;;;;;;;;;;18.91;48.46;95345.16;10237064;28;2142;-68
2023/05/20 13:56:10;;;;;;;;;;;;;;;18.91;48.55;95340.69;10243053;28;1839;-68
2023/05/20 14:01:11;;;;;;;;;;;;;;;18.91;48.57;95338.06;10239505;28;1835;-68
2023/05/20 14:06:13;;;;;;;;;;;;;;;18.90;48.39;95328.63;10240400;28;1978;-68
2023/05/20 14:11:14;;;;;;;;;;;;;;;18.91;48.44;95327.56;10244081;28;2225;-69
2023/05/20 14:16:14;;;;;;;;;;;;;;;18.91;48.31;95330.19;10238917;28;1887;-68
2023/05/20 14:21:15;;;;;;;;;;;;;;;18.91;48.50;95332.81;10240160;28;1858;-68
2023/05/20 14:26:15;;;;;;;;;;;;;;;18.92;48.55;95323.88;10245344;28;1911;-67
2023/05/20 14:31:15;;;;;;;;;;;;;;;18.91;48.37;95311.81;10232451;28;2015;-68
2023/05/20 14:36:16;;;;;;;;;;;;;;;18.92;48.53;95312.59;10233779;28;2084;-68
2023/05/20 14:41:16;;;;;;;;;;;;;;;18.92;48.45;95308.13;10232740;28;4472;-68
2023/05/20 14:46:16;;;;;;;;;;;;;;;18.92;48.53;95308.13;10233704;29;2012;-68
2023/05/20 14:51:16;;;;;;;;;;;;;;;18.93;48.56;95301.81;10238448;28;2074;-68
2023/05/20 14:56:17;;;;;;;;;;;;;;;18.93;48.56;95307.06;10234131;29;1959;-68
2023/05/20 15:01:17;;;;;;;;;;;;;;;18.94;48.42;95305.25;10234072;28;1859;-68
2023/05/20 15:06:17;;;;;;;;;;;;;;;18.93;48.35;95291.31;10244990;28;2077;-68
2023/05/20 15:11:17;;;;;;;;;;;;;;;18.93;48.61;95301.03;10253948;28;1484;-68
2023/05/20 15:16:18;;;;;;;;;;;;;;;18.93;48.46;95299.19;10243091;28;1937;-68
2023/05/20 15:21:18;;;;;;;;;;;;;;;18.93;48.52;95299.19;10233237;29;2083;-68
2023/05/20 15:26:18;;;;;;;;;;;;;;;18.94;48.66;95300.75;10231165;28;1968;-69
2023/05/20 15:31:19;;;;;;;;;;;;;;;18.96;48.48;95295.25;10234890;28;1892;-68
2023/05/20 15:36:20;;;;;;;;;;;;;;;18.95;48.70;95299.69;10236647;28;1902;-69
2023/05/20 15:41:20;;;;;;;;;;;;;;;18.95;48.62;95299.69;10232187;28;4436;-68
2023/05/20 15:46:22;;;;;;;;;;;;;;;18.94;48.45;95306.00;10239518;28;2216;-68
2023/05/20 15:51:23;;;;;;;;;;;;;;;18.96;48.47;95308.38;10239471;28;1875;-68
2023/05/20 15:56:23;;;;;;;;;;;;;;;18.96;48.54;95305.75;10240442;28;2134;-67
2023/05/20 16:01:25;;;;;;;;;;;;;;;18.95;48.59;95299.69;10237944;28;2096;-68
2023/05/20 16:06:25;;;;;;;;;;;;;;;18.96;48.58;95300.50;10234142;28;2026;-68
2023/05/20 16:11:27;;;;;;;;;;;;;;;18.97;48.53;95297.59;10235943;28;1894;-68
2023/05/20 16:16:27;;;;;;;;;;;;;;;18.96;48.70;95297.88;10243524;28;1831;-68
2023/05/20 16:21:27;;;;;;;;;;;;;;;18.96;48.67;95282.88;10247994;28;1891;-67
2023/05/20 16:26:30;;;;;;;;;;;;;;;18.97;48.86;95284.44;10241595;28;1965;-68
2023/05/20 16:31:30;;;;;;;;;;;;;;;18.97;48.89;95281.03;10244743;28;1879;-68
2023/05/20 16:36:30;;;;;;;;;;;;;;;18.97;48.84;95284.44;10248246;28;1924;-66
2023/05/20 16:41:30;;;;;;;;;;;;;;;18.97;48.89;95289.72;10242184;28;4472;-66
2023/05/20 16:46:31;;;;;;;;;;;;;;;18.97;49.00;95294.97;10242331;28;1910;-67
2023/05/20 16:51:31;;;;;;;;;;;;;;;18.99;48.98;95298.09;10250748;28;1841;-66
2023/05/20 16:56:33;;;;;;;;;;;;;;;19.00;49.15;95291.78;10244644;28;1973;-66
2023/05/20 17:01:35;;;;;;;;;;;;;;;19.01;49.09;95289.94;10243229;28;2037;-66
2023/05/20 17:06:38;;;;;;;;;;;;;;;19.00;49.12;95293.63;10244923;28;2014;-68
2023/05/20 17:11:38;;;;;;;;;;;;;;;19.00;49.12;95296.25;10244858;28;2091;-68
2023/05/20 17:16:39;;;;;;;;;;;;;;;18.99;48.91;95303.34;10246992;28;1816;-68
2023/05/20 17:21:39;;;;;;;;;;;;;;;18.99;49.15;95298.09;10247154;28;1832;-68
2023/05/20 17:26:39;;;;;;;;;;;;;;;18.99;49.13;95303.34;10245023;28;1943;-70
2023/05/20 17:31:40;;;;;;;;;;;;;;;18.99;48.96;95303.34;10242904;28;1899;-68
2023/05/20 17:36:40;;;;;;;;;;;;;;;19.00;49.07;95309.41;10247304;28;1887;-68
2023/05/20 17:41:40;;;;;;;;;;;;;;;18.99;49.10;95313.84;10241562;28;4620;-69
2023/05/20 17:46:41;;;;;;;;;;;;;;;18.99;49.05;95321.72;10244413;28;1979;-68
2023/05/20 17:51:41;;;;;;;;;;;;;;;18.99;49.06;95321.72;10241978;28;1972;-68
2023/05/20 17:56:43;;;;;;;;;;;;;;;18.99;49.12;95324.38;10241306;28;2031;-68
2023/05/20 18:01:43;;;;;;;;;;;;;;;18.99;49.04;95327.00;10239091;28;1840;-68
2023/05/20 18:06:43;;;;;;;;;;;;;;;18.99;49.05;95329.63;10240025;28;1906;-68
2023/05/20 18:11:44;;;;;;;;;;;;;;;18.99;49.19;95331.44;10238226;28;2030;-68
2023/05/20 18:16:44;;;;;;;;;;;;;;;19.00;49.26;95336.41;10240485;28;2043;-67
2023/05/20 18:21:44;;;;;;;;;;;;;;;19.01;49.21;95340.63;10248073;28;1696;-68
2023/05/20 18:26:45;;;;;;;;;;;;;;;19.01;49.28;95331.97;10248673;28;1975;-67
2023/05/20 18:31:45;;;;;;;;;;;;;;;19.01;49.44;95335.38;10246909;28;1544;-68
2023/05/20 18:36:45;;;;;;;;;;;;;;;19.02;49.41;95330.91;10247501;28;1651;-66
2023/05/20 18:41:46;;;;;;;;;;;;;;;19.03;49.64;95329.84;10232989;28;4449;-67
2023/05/20 18:46:46;;;;;;;;;;;;;;;19.04;49.56;95328.81;10239064;28;1983;-64
2023/05/20 18:51:47;;;;;;;;;;;;;;;19.05;49.62;95330.34;10240988;28;2092;-67
2023/05/20 18:56:47;;;;;;;;;;;;;;;19.04;49.55;95326.94;10242223;28;2026;-65
2023/05/20 19:01:48;;;;;;;;;;;;;;;19.06;49.49;95322.19;10238250;28;1824;-67
2023/05/20 19:06:48;;;;;;;;;;;;;;;19.07;49.61;95325.63;10241371;28;1987;-67
2023/05/20 19:11:50;;;;;;;;;;;;;;;19.10;49.35;95328.47;10236984;28;1880;-66
2023/05/20 19:16:51;;;;;;;;;;;;;;;19.12;49.45;95321.13;10240427;28;1820;-63
2023/05/20 19:21:51;;;;;;;;;;;;;;;19.13;49.30;95335.81;10234151;28;2032;-65
2023/05/20 19:26:51;;;;;;;;;;;;;;;19.16;49.29;95340.53;10217511;28;2012;-64
2023/05/20 19:31:52;;;;;;;;;;;;;;;19.18;49.30;95353.41;10232012;28;1928;-69
2023/05/20 19:36:52;;;;;;;;;;;;;;;19.20;49.23;95361.78;10240662;28;1893;-66
2023/05/20 19:41:52;;;;;;;;;;;;;;;19.22;49.29;95357.03;10236106;28;4492;-67
2023/05/20 19:46:53;;;;;;;;;;;;;;;19.22;49.20;95364.94;10240250;28;1979;-65
2023/05/20 19:51:53;;;;;;;;;;;;;;;19.25;49.20;95369.63;10237872;28;2434;-65
2023/05/20 19:56:53;;;;;;;;;;;;;;;19.27;49.23;95370.91;10236268;28;1907;-68
2023/05/20 20:01:54;;;;;;;;;;;;;;;19.28;49.22;95369.88;10240184;28;1843;-66
2023/05/20 20:06:54;;;;;;;;;;;;;;;19.30;49.27;95370.38;10236606;28;1907;-69
2023/05/20 20:11:55;;;;;;;;;;;;;;;19.32;49.15;95370.09;10244498;28;1808;-64
2023/05/20 20:16:55;;;;;;;;;;;;;;;19.34;49.32;95374.06;10245624;28;2175;-71
2023/05/20 20:21:56;;;;;;;;;;;;;;;19.34;49.11;95374.06;10235438;28;2000;-65
2023/05/20 20:26:57;;;;;;;;;;;;;;;19.35;49.11;95372.22;10239320;28;1920;-66
2023/05/20 20:32:01;;;;;;;;;;;;;;;19.35;49.27;95378.25;10234519;28;1875;-66
2023/05/20 20:37:01;;;;;;;;;;;;;;;19.34;49.36;95368.81;10238490;28;1888;-66
2023/05/20 20:42:01;;;;;;;;;;;;;;;19.36;49.11;95366.69;10230741;28;4382;-65
2023/05/20 20:47:02;;;;;;;;;;;;;;;19.36;49.27;95374.56;10239210;28;2025;-65
2023/05/20 20:52:03;;;;;;;;;;;;;;;19.38;49.17;95371.66;10234466;28;1899;-65
2023/05/20 20:57:03;;;;;;;;;;;;;;;19.37;49.30;95370.88;10240022;28;1927;-65
2023/05/20 21:02:03;;;;;;;;;;;;;;;19.39;49.11;95365.38;10244491;28;1812;-66
2023/05/20 21:07:04;;;;;;;;;;;;;;;19.38;49.31;95372.44;10244427;28;1918;-65
2023/05/20 21:12:05;;;;;;;;;;;;;;;19.39;49.20;95374.00;10244564;28;1930;-66
2023/05/20 21:17:05;;;;;;;;;;;;;;;19.40;49.28;95372.97;10241277;28;1812;-66
2023/05/20 21:22:06;;;;;;;;;;;;;;;19.41;49.05;95369.25;10243173;28;1828;-66
2023/05/20 21:27:06;;;;;;;;;;;;;;;19.41;49.23;95358.75;10237917;28;1974;-66
2023/05/20 21:32:06;;;;;;;;;;;;;;;19.42;49.36;95370.06;10243519;28;1856;-66
2023/05/20 21:37:06;;;;;;;;;;;;;;;19.41;49.21;95360.63;10238876;28;1906;-66
2023/05/20 21:42:07;;;;;;;;;;;;;;;19.43;49.22;95366.38;10242189;28;4429;-65
2023/05/20 21:47:07;;;;;;;;;;;;;;;19.43;49.29;95356.63;10243128;28;2004;-65
2023/05/20 21:52:07;;;;;;;;;;;;;;;19.43;49.24;95348.75;10238863;28;1860;-66
2023/05/20 21:57:08;;;;;;;;;;;;;;;19.44;49.21;95352.97;10242821;28;1927;-66
2023/05/20 22:02:08;;;;;;;;;;;;;;;19.44;49.04;95358.22;10240384;28;1832;-66
2023/05/20 22:07:08;;;;;;;;;;;;;;;19.45;49.18;95359.00;10236891;28;1980;-66
2023/05/20 22:12:09;;;;;;;;;;;;;;;19.45;49.19;95357.13;10240122;28;1898;-66
2023/05/20 22:17:10;;;;;;;;;;;;;;;19.46;49.33;95350.03;10240593;28;1879;-66
2023/05/20 22:22:10;;;;;;;;;;;;;;;19.48;49.12;95347.91;10236943;28;1899;-66
2023/05/20 22:27:10;;;;;;;;;;;;;;;19.47;49.25;95344.50;10240027;28;1977;-66
2023/05/20 22:32:10;;;;;;;;;;;;;;;19.47;49.05;95336.63;10241066;28;2102;-66
2023/05/20 22:37:11;;;;;;;;;;;;;;;19.49;49.13;95331.09;10236773;28;2121;-66
2023/05/20 22:42:11;;;;;;;;;;;;;;;19.49;49.24;95334.50;10239328;28;4448;-67
2023/05/20 22:47:11;;;;;;;;;;;;;;;19.49;49.08;95334.50;10242431;28;1959;-66
2023/05/20 22:52:11;;;;;;;;;;;;;;;19.51;49.17;95330.81;10241566;28;1879;-66
2023/05/20 22:57:12;;;;;;;;;;;;;;;19.51;49.16;95325.56;10234349;28;1930;-66
2023/05/20 23:02:12;;;;;;;;;;;;;;;19.51;49.20;95322.94;10242167;28;1852;-66
2023/05/20 23:07:13;;;;;;;;;;;;;;;19.52;49.14;95321.84;10238375;28;1910;-66
2023/05/20 23:12:14;;;;;;;;;;;;;;;19.52;49.13;95316.59;10239297;28;1938;-66
2023/05/20 23:17:14;;;;;;;;;;;;;;;19.51;49.21;95307.16;10233764;28;1891;-66
2023/05/20 23:22:15;;;;;;;;;;;;;;;19.52;49.06;95304.25;10240260;28;1820;-66
2023/05/20 23:27:15;;;;;;;;;;;;;;;19.52;48.95;95303.47;10240794;28;1915;-66
2023/05/20 23:32:15;;;;;;;;;;;;;;;19.53;49.14;95302.41;10239461;28;2194;-66
2023/05/20 23:37:16;;;;;;;;;;;;;;;19.53;48.94;95302.41;10239112;28;1840;-66
2023/05/20 23:42:16;;;;;;;;;;;;;;;19.53;48.96;95305.81;10240728;28;4397;-66
2023/05/20 23:47:17;;;;;;;;;;;;;;;19.53;49.04;95305.81;10236904;28;1974;-66
2023/05/20 23:52:17;;;;;;;;;;;;;;;19.54;49.05;95304.75;10238238;28;1808;-66
2023/05/20 23:57:18;;;;;;;;;;;;;;;19.54;49.01;95288.97;10238169;28;1839;-66
